Lebanon Municipal Airport Lebanon US
ICAO: KLEB
IATA: LEB
Category: Medium
Scheduled Services: Yes

Elevation: 603 ft
TransAlt. 18000 ft.

Airport Communications:
BOSTON APP/DEP:134.7
ASOS:118.65
ATIS:118.65
CTAF:125.95
GND:121.6
BANGOR RDO:122.2
TWR:125.95
UNICOM:122.95

KLEB Zoom In..

If Map Doesn't Load, Click Here

Runways:

(A) RW 07 length 5496 ft width 100 ft
---- / hdg 75

(B) RW 18 length 5200 ft width 100 ft
ILS 111.90 / hdg 184

(C) RW 25 length 5496 ft width 100 ft
---- / hdg 255

(D) RW 36 length 5200 ft width 100 ft
---- / hdg 4

Location; KLEB
Day. 21 / Time. 14.53 Zulu
* Altimeter: 30.17
* Temperature: 16° c. 60.8°f.
* Wind from: 170° Speed 11 kn.
Dewpoint: 12° c.
Visibility: 10 Statute Miles.
Clouds: Overcast 1500 ft.

KLEB 211453Z 17011KT 10SM OVC015 16/12 A3017 RMK AO2 SLP210 60001 T01610117 56022


Wind From 170°
Speed 11 kn.

 
 
jpsmedia.com for Web Design worldairports.se 2018   terms of use